Time;durP1;ratioP1;P1;durP2;ratioP2;P2;SDS_P1;SDS_P2;PMS_P1;PMS_P2;Temp;Humidity;BMP_temperature;BMP_pressure;BME280_temperature;BME280_humidity;BME280_pressure;Samples;Min_cycle;Max_cycle;Signal;HPM_P1;HPM_P2
2022/09/04 00:01:45;;;;;;;18.35;17.23;;;13.80;99.90;;;;;;4971888;28;20122;-72
2022/09/04 00:04:20;;;;;;;19.52;18.20;;;13.80;99.90;;;;;;4980459;28;20046;-72
2022/09/04 00:06:58;;;;;;;18.70;17.60;;;13.80;99.90;;;;;;4973374;28;20256;-72
2022/09/04 00:09:54;;;;;;;18.55;17.20;;;13.90;99.90;;;;;;4968003;28;20161;-71
2022/09/04 00:12:28;;;;;;;17.95;16.83;;;13.90;99.90;;;;;;4987876;28;20081;-71
2022/09/04 00:15:18;;;;;;;18.33;17.23;;;13.90;99.90;;;;;;4970957;28;20050;-72
2022/09/04 00:17:57;;;;;;;19.45;18.10;;;13.90;99.90;;;;;;4985599;28;20037;-72
2022/09/04 00:20:49;;;;;;;19.23;17.98;;;14.00;99.90;;;;;;4986349;28;20074;-72
2022/09/04 00:23:31;;;;;;;19.63;18.17;;;13.90;99.90;;;;;;4987764;28;20217;-73
2022/09/04 00:26:00;;;;;;;19.15;17.90;;;13.80;99.90;;;;;;4987141;28;20038;-72
2022/09/04 00:28:36;;;;;;;18.83;17.83;;;13.60;99.90;;;;;;4990146;28;20046;-72
2022/09/04 00:31:27;;;;;;;19.67;18.25;;;13.50;99.90;;;;;;4970789;28;20442;-71
2022/09/04 00:34:18;;;;;;;18.48;17.50;;;13.50;99.90;;;;;;4987263;28;20496;-72
2022/09/04 00:36:50;;;;;;;18.98;17.75;;;13.30;99.90;;;;;;4991475;28;20490;-73
2022/09/04 00:39:33;;;;;;;18.55;17.55;;;13.20;99.90;;;;;;4993295;28;20042;-71
2022/09/04 00:42:26;;;;;;;19.52;18.33;;;13.00;99.90;;;;;;4975506;28;20042;-71
2022/09/04 00:45:33;;;;;;;19.67;18.23;;;12.90;99.90;;;;;;4984288;28;20322;-72
2022/09/04 00:48:30;;;;;;;19.52;18.33;;;12.90;99.90;;;;;;4965153;28;20086;-71
2022/09/04 00:51:15;;;;;;;19.40;18.20;;;12.80;99.90;;;;;;4972907;28;20134;-71
2022/09/04 00:54:17;;;;;;;18.52;17.63;;;12.70;99.90;;;;;;4955886;28;20232;-73
2022/09/04 00:57:26;;;;;;;18.45;17.45;;;12.70;99.90;;;;;;4986564;28;20460;-72
2022/09/04 01:00:07;;;;;;;18.90;17.70;;;12.70;99.90;;;;;;4998662;28;20038;-71
2022/09/04 01:03:02;;;;;;;18.45;17.35;;;12.60;99.90;;;;;;4957748;28;20042;-73
2022/09/04 01:05:46;;;;;;;17.87;16.77;;;12.50;99.90;;;;;;4979644;28;21091;-72
2022/09/04 01:08:39;;;;;;;18.38;17.20;;;12.40;99.90;;;;;;4995595;28;20338;-73
2022/09/04 01:11:31;;;;;;;18.52;17.50;;;12.60;99.90;;;;;;4999251;28;20049;-72
2022/09/04 01:14:08;;;;;;;18.95;17.83;;;12.50;99.90;;;;;;4979909;28;20539;-72
2022/09/04 01:16:51;;;;;;;17.73;16.73;;;12.50;99.90;;;;;;4990077;28;20046;-72
2022/09/04 01:19:49;;;;;;;18.08;17.00;;;12.70;99.90;;;;;;4979643;28;20125;-71
2022/09/04 01:22:35;;;;;;;18.63;17.52;;;12.70;99.90;;;;;;4999913;28;20095;-73
2022/09/04 01:25:52;;;;;;;17.67;16.65;;;12.60;99.90;;;;;;4995697;28;20045;-73
2022/09/04 01:28:46;;;;;;;17.08;16.08;;;12.60;99.90;;;;;;4955926;28;20042;-71
2022/09/04 01:31:25;;;;;;;17.63;16.73;;;12.60;99.90;;;;;;4991220;28;20593;-72
2022/09/04 01:34:24;;;;;;;18.25;17.02;;;12.50;99.90;;;;;;4980862;28;20060;-71
2022/09/04 01:37:40;;;;;;;18.92;17.77;;;12.40;99.90;;;;;;4954933;28;20113;-72
2022/09/04 01:40:44;;;;;;;17.87;16.87;;;12.40;99.90;;;;;;4961268;28;20291;-70
2022/09/04 01:43:16;;;;;;;18.08;17.00;;;12.30;99.90;;;;;;4976217;28;20077;-71
2022/09/04 01:46:08;;;;;;;18.10;17.10;;;12.30;99.90;;;;;;4964553;28;20053;-72
2022/09/04 01:48:49;;;;;;;17.65;16.23;;;12.30;99.90;;;;;;4982763;28;20046;-71
2022/09/04 01:51:16;;;;;;;17.23;16.27;;;12.30;99.90;;;;;;4993878;28;20523;-70
2022/09/04 01:53:48;;;;;;;16.73;15.82;;;12.30;99.90;;;;;;5000544;28;20045;-72
2022/09/04 01:56:33;;;;;;;17.23;16.23;;;12.40;99.90;;;;;;4973569;28;20064;-71
2022/09/04 01:59:10;;;;;;;16.27;15.38;;;12.40;99.90;;;;;;4998491;28;20046;-70
2022/09/04 02:02:03;;;;;;;17.20;16.30;;;12.60;99.90;;;;;;4993733;28;20072;-72
2022/09/04 02:04:44;;;;;;;17.95;16.90;;;12.80;99.90;;;;;;4956530;28;20050;-70
2022/09/04 02:07:37;;;;;;;17.55;16.55;;;12.80;99.90;;;;;;4996398;28;20062;-71
2022/09/04 02:10:07;;;;;;;17.52;16.50;;;12.70;99.90;;;;;;4982500;28;20046;-70
2022/09/04 02:12:49;;;;;;;17.83;16.73;;;12.70;99.90;;;;;;4971750;28;20503;-72
2022/09/04 02:15:41;;;;;;;17.75;16.63;;;12.60;99.90;;;;;;4994206;28;20046;-73
2022/09/04 02:18:14;;;;;;;17.40;16.50;;;12.70;99.90;;;;;;4971700;28;21360;-70
2022/09/04 02:20:51;;;;;;;17.40;16.50;;;12.70;99.90;;;;;;4998379;28;20072;-73
2022/09/04 02:23:28;;;;;;;18.15;16.90;;;12.70;99.90;;;;;;4993126;28;20133;-73
2022/09/04 02:26:24;;;;;;;18.02;16.63;;;12.60;99.90;;;;;;5002332;28;20133;-73
2022/09/04 02:29:14;;;;;;;18.40;17.40;;;12.60;99.90;;;;;;4998741;28;20314;-74
2022/09/04 02:32:05;;;;;;;18.48;17.33;;;12.50;99.90;;;;;;4980080;28;20069;-73
2022/09/04 02:34:51;;;;;;;18.10;17.10;;;12.50;99.90;;;;;;5001104;28;20846;-72
2022/09/04 02:37:24;;;;;;;18.38;17.35;;;12.40;99.90;;;;;;4988852;28;20043;-72
2022/09/04 02:40:06;;;;;;;18.55;17.60;;;12.30;99.90;;;;;;4981252;28;20041;-70
2022/09/04 02:43:18;;;;;;;18.75;17.55;;;12.30;99.90;;;;;;4976336;28;20049;-71
2022/09/04 02:46:03;;;;;;;19.08;18.05;;;12.30;99.90;;;;;;4994461;28;20049;-72
2022/09/04 02:48:56;;;;;;;18.05;17.02;;;12.30;99.90;;;;;;4979148;28;20547;-71
2022/09/04 02:51:42;;;;;;;17.73;16.83;;;12.50;99.90;;;;;;4996214;28;20045;-72
2022/09/04 02:54:28;;;;;;;17.20;16.20;;;12.70;99.90;;;;;;4993482;28;20145;-70
2022/09/04 02:57:20;;;;;;;18.30;17.33;;;12.80;99.90;;;;;;4996913;28;20077;-72
2022/09/04 02:59:53;;;;;;;18.55;17.45;;;12.80;99.90;;;;;;5004250;28;20054;-72
2022/09/04 03:02:28;;;;;;;19.00;17.77;;;12.80;99.90;;;;;;4984877;28;20114;-73
2022/09/04 03:05:05;;;;;;;19.02;18.02;;;12.70;99.90;;;;;;4998072;28;20124;-72
2022/09/04 03:07:39;;;;;;;19.60;18.50;;;12.60;99.90;;;;;;4997228;28;20099;-73
2022/09/04 03:10:27;;;;;;;18.77;17.77;;;12.40;99.90;;;;;;4972441;28;20046;-73
2022/09/04 03:13:06;;;;;;;19.83;18.73;;;12.20;99.90;;;;;;4996802;28;20404;-72
2022/09/04 03:15:42;;;;;;;20.20;18.83;;;12.10;99.90;;;;;;4993137;28;20045;-73
2022/09/04 03:18:47;;;;;;;19.42;18.13;;;12.10;99.90;;;;;;4979986;28;20470;-72
2022/09/04 03:21:23;;;;;;;18.95;17.77;;;12.10;99.90;;;;;;4997104;28;20327;-71
2022/09/04 03:23:57;;;;;;;18.65;17.65;;;12.10;99.90;;;;;;4974666;28;20041;-72
2022/09/04 03:26:30;;;;;;;19.15;17.75;;;12.00;99.90;;;;;;4978835;28;20144;-72
2022/09/04 03:29:20;;;;;;;18.25;17.10;;;12.10;99.90;;;;;;4960761;28;20081;-72
2022/09/04 03:32:03;;;;;;;18.73;17.58;;;12.30;99.90;;;;;;4996900;28;20092;-74
2022/09/04 03:35:06;;;;;;;19.08;17.98;;;12.30;99.90;;;;;;4999300;28;20108;-70
2022/09/04 03:37:44;;;;;;;18.55;17.55;;;12.10;99.90;;;;;;4979058;28;20107;-70
2022/09/04 03:40:30;;;;;;;18.67;17.67;;;12.00;99.90;;;;;;4976564;28;20359;-72
2022/09/04 03:43:17;;;;;;;;;;;12.00;99.90;;;;;;5002347;28;20343;-70
2022/09/04 03:45:58;;;;;;;19.55;18.17;;;12.00;99.90;;;;;;4997736;28;20414;-75
2022/09/04 03:48:35;;;;;;;19.45;18.27;;;11.90;99.90;;;;;;4981791;28;20597;-70
2022/09/04 03:51:30;;;;;;;19.25;18.15;;;11.90;99.90;;;;;;4981966;28;20041;-70
2022/09/04 03:54:15;;;;;;;19.25;18.15;;;11.90;99.90;;;;;;5001074;28;20546;-73
2022/09/04 03:56:57;;;;;;;19.27;18.25;;;11.80;99.90;;;;;;4980323;28;20093;-73
2022/09/04 03:59:33;;;;;;;19.30;18.10;;;11.80;99.90;;;;;;4993696;28;20100;-74
2022/09/04 04:02:24;;;;;;;19.15;18.02;;;11.80;99.90;;;;;;4981987;28;20593;-73
2022/09/04 04:05:11;;;;;;;18.60;17.60;;;11.80;99.90;;;;;;4999537;28;20256;-73
2022/09/04 04:08:16;;;;;;;19.60;18.00;;;12.00;99.90;;;;;;4968975;28;20225;-72
2022/09/04 04:10:55;;;;;;;18.92;17.73;;;12.00;99.90;;;;;;4921802;29;20171;-74
2022/09/04 04:13:36;;;;;;;18.88;17.75;;;11.90;99.90;;;;;;4991281;28;20123;-70
2022/09/04 04:16:29;;;;;;;19.05;17.90;;;12.00;99.90;;;;;;5008695;28;20123;-71
2022/09/04 04:19:22;;;;;;;18.85;17.65;;;11.80;99.90;;;;;;4984767;28;20047;-72
2022/09/04 04:22:07;;;;;;;18.58;17.50;;;11.60;99.90;;;;;;4966060;28;20038;-70
2022/09/04 04:25:01;;;;;;;17.93;16.80;;;11.70;99.90;;;;;;4984005;28;20037;-72
2022/09/04 04:27:48;;;;;;;18.33;17.13;;;11.70;99.90;;;;;;4998821;28;20635;-71
2022/09/04 04:30:16;;;;;;;17.05;15.95;;;11.40;99.90;;;;;;5000662;28;20045;-72
2022/09/04 04:33:21;;;;;;;17.83;16.60;;;11.40;99.90;;;;;;4982486;28;20038;-73
2022/09/04 04:36:04;;;;;;;17.75;16.63;;;11.50;99.90;;;;;;4984407;28;20503;-72
2022/09/04 04:38:55;;;;;;;18.38;17.38;;;11.40;99.90;;;;;;5004713;28;20073;-74
2022/09/04 04:42:05;;;;;;;17.80;16.60;;;11.40;99.90;;;;;;5001093;28;20108;-71
2022/09/04 04:47:53;;;;;;;18.25;17.00;;;11.70;99.90;;;;;;4981978;28;20426;-77
2022/09/04 04:50:31;;;;;;;17.70;16.40;;;11.60;99.90;;;;;;4983015;28;20136;-78
2022/09/04 04:53:13;;;;;;;17.77;16.77;;;11.60;99.90;;;;;;4987985;28;20056;-77
2022/09/04 04:56:13;;;;;;;20.75;19.13;;;11.50;99.90;;;;;;4985744;28;20060;-77
2022/09/04 04:59:08;;;;;;;20.33;18.90;;;11.60;99.90;;;;;;4982867;28;20050;-77
2022/09/04 05:01:47;;;;;;;19.90;18.58;;;11.60;99.90;;;;;;4965793;28;20287;-77
2022/09/04 05:04:50;;;;;;;19.67;18.48;;;11.60;99.90;;;;;;4984767;28;20116;-77
2022/09/04 05:07:35;;;;;;;20.23;19.02;;;11.60;99.90;;;;;;4982713;28;20439;-77
2022/09/04 05:10:24;;;;;;;18.88;17.80;;;11.50;99.90;;;;;;4968834;28;20053;-78
2022/09/04 05:13:20;;;;;;;20.88;19.25;;;11.50;99.90;;;;;;4982167;28;20190;-77
2022/09/04 05:15:51;;;;;;;;;;;11.50;99.90;;;;;;4979864;28;20200;-77
2022/09/04 05:19:06;;;;;;;19.17;18.08;;;11.50;99.90;;;;;;4975402;28;20352;-77
2022/09/04 05:21:38;;;;;;;20.38;19.05;;;11.60;99.90;;;;;;4982506;28;20042;-77
2022/09/04 05:24:18;;;;;;;20.20;19.00;;;11.70;99.90;;;;;;4981543;28;20175;-77
2022/09/04 05:26:54;;;;;;;20.98;19.67;;;11.70;99.90;;;;;;4968062;28;20046;-77
2022/09/04 05:29:38;;;;;;;20.40;19.20;;;11.70;99.90;;;;;;4998733;28;21083;-77
2022/09/04 05:32:28;;;;;;;20.33;19.23;;;11.80;99.90;;;;;;4992263;28;20050;-77
2022/09/04 05:35:13;;;;;;;21.48;20.08;;;11.80;99.90;;;;;;4987333;28;20046;-77
2022/09/04 05:38:04;;;;;;;20.60;19.50;;;11.90;99.90;;;;;;5004122;28;20610;-77
2022/09/04 05:41:09;;;;;;;21.05;19.77;;;12.00;99.90;;;;;;4983832;28;20100;-77
2022/09/04 05:44:01;;;;;;;21.27;19.98;;;12.00;99.90;;;;;;4971719;28;20127;-77
2022/09/04 05:46:58;;;;;;;20.65;19.52;;;12.10;99.90;;;;;;4985500;28;21876;-77
2022/09/04 05:49:54;;;;;;;21.25;19.73;;;12.20;99.90;;;;;;5001587;28;20787;-76
2022/09/04 05:52:45;;;;;;;20.48;19.17;;;12.30;99.90;;;;;;4978961;28;20046;-76
2022/09/04 05:55:30;;;;;;;19.65;18.65;;;12.50;99.90;;;;;;4979695;28;20072;-77
2022/09/04 05:58:09;;;;;;;20.38;19.00;;;12.40;99.90;;;;;;4971610;28;20368;-77
2022/09/04 06:00:51;;;;;;;20.75;19.40;;;12.50;99.90;;;;;;4994449;28;20385;-77
2022/09/04 06:03:46;;;;;;;21.00;19.55;;;12.60;99.90;;;;;;4981713;28;20096;-77
2022/09/04 06:06:15;;;;;;;21.70;20.30;;;12.70;99.90;;;;;;4975685;28;20439;-78
2022/09/04 06:09:00;;;;;;;20.02;18.73;;;12.90;99.90;;;;;;4992698;28;20078;-78
2022/09/04 06:11:50;;;;;;;20.02;18.85;;;13.10;99.90;;;;;;4975631;28;20060;-77
2022/09/04 06:14:55;;;;;;;19.80;18.60;;;13.30;99.90;;;;;;4978862;28;20041;-77
2022/09/04 06:17:33;;;;;;;20.20;19.08;;;13.60;99.90;;;;;;4972923;28;20511;-78
2022/09/04 06:20:23;;;;;;;20.02;18.83;;;13.70;99.90;;;;;;4985746;28;20573;-78
2022/09/04 06:23:11;;;;;;;20.00;18.90;;;13.90;99.90;;;;;;4981340;28;20475;-77
2022/09/04 06:25:47;;;;;;;19.75;18.52;;;14.20;99.90;;;;;;4983251;28;20045;-78
2022/09/04 06:28:25;;;;;;;20.27;19.17;;;14.50;99.90;;;;;;4985920;28;20606;-78
2022/09/04 06:30:58;;;;;;;20.58;19.45;;;14.70;99.90;;;;;;4985704;28;20073;-78
2022/09/04 06:33:46;;;;;;;19.73;18.70;;;14.90;99.90;;;;;;4989883;28;20049;-78
2022/09/04 06:36:35;;;;;;;21.17;20.05;;;15.20;99.90;;;;;;4989011;28;20059;-78
2022/09/04 06:39:04;;;;;;;21.15;20.05;;;15.50;99.90;;;;;;4988197;28;20050;-77
2022/09/04 06:41:50;;;;;;;20.77;19.67;;;15.70;99.90;;;;;;4989502;28;20566;-77
2022/09/04 06:44:32;;;;;;;20.95;19.65;;;15.90;99.90;;;;;;5001310;28;20050;-77
2022/09/04 06:47:21;;;;;;;20.25;19.15;;;16.10;99.90;;;;;;4985840;28;20641;-77
2022/09/04 06:50:10;;;;;;;21.08;19.95;;;16.30;99.90;;;;;;4996684;28;20049;-78
2022/09/04 06:52:59;;;;;;;19.98;18.90;;;16.50;99.90;;;;;;4991267;28;20042;-78
2022/09/04 06:55:46;;;;;;;21.38;20.00;;;16.70;99.90;;;;;;5016238;28;20049;-78
2022/09/04 06:58:51;;;;;;;21.33;20.23;;;16.80;99.90;;;;;;4986577;28;20046;-78
2022/09/04 07:01:49;;;;;;;21.17;19.80;;;17.00;99.90;;;;;;4982625;28;20050;-78
2022/09/04 07:04:48;;;;;;;20.02;18.90;;;17.10;99.90;;;;;;5014126;28;20041;-79
2022/09/04 07:07:25;;;;;;;20.65;19.42;;;17.40;99.90;;;;;;4980204;28;20271;-79
2022/09/04 07:10:07;;;;;;;20.30;19.05;;;17.90;99.90;;;;;;4993106;28;20107;-79
2022/09/04 07:12:51;;;;;;;20.20;19.20;;;18.20;99.90;;;;;;4979341;28;20116;-79
2022/09/04 07:15:47;;;;;;;19.85;18.70;;;18.60;99.90;;;;;;4982226;28;20107;-79
2022/09/04 07:18:33;;;;;;;20.90;19.50;;;18.80;99.90;;;;;;4994725;28;20136;-79
2022/09/04 07:21:47;;;;;;;20.58;19.05;;;19.20;99.90;;;;;;4976796;28;20042;-79
2022/09/04 07:24:55;;;;;;;20.55;19.45;;;19.50;99.90;;;;;;5019576;28;20045;-79
2022/09/04 07:27:51;;;;;;;20.63;19.55;;;19.90;99.90;;;;;;4998805;28;20160;-79
2022/09/04 07:30:19;;;;;;;20.48;19.35;;;20.10;99.90;;;;;;4983478;28;20302;-79
2022/09/04 07:32:59;;;;;;;20.55;19.45;;;20.10;99.90;;;;;;4983894;28;20461;-78
2022/09/04 07:35:37;;;;;;;19.88;18.88;;;20.30;99.90;;;;;;5005638;28;20074;-78
2022/09/04 07:38:23;;;;;;;20.05;19.05;;;20.40;99.90;;;;;;4998481;28;20099;-78
2022/09/04 07:41:18;;;;;;;19.55;18.65;;;20.60;99.90;;;;;;4984144;28;20049;-79
2022/09/04 07:43:53;;;;;;;20.02;19.02;;;20.70;99.90;;;;;;4992713;28;20049;-79
2022/09/04 07:46:43;;;;;;;19.98;18.88;;;20.70;99.90;;;;;;4997612;28;20048;-79
2022/09/04 07:49:30;;;;;;;22.33;21.02;;;20.90;99.90;;;;;;4992906;28;20555;-79
2022/09/04 07:52:09;;;;;;;21.50;20.50;;;21.30;99.90;;;;;;4984914;28;20050;-79
2022/09/04 07:54:38;;;;;;;22.38;21.25;;;21.40;99.90;;;;;;4995479;28;20049;-79
2022/09/04 07:57:08;;;;;;;22.35;21.05;;;21.40;99.90;;;;;;5002674;28;20095;-79
2022/09/04 08:00:07;;;;;;;20.98;19.92;;;21.30;99.90;;;;;;5012177;28;20045;-79
2022/09/04 08:03:10;;;;;;;22.58;21.38;;;21.60;99.90;;;;;;4971850;28;20042;-79
2022/09/04 08:05:48;;;;;;;22.40;21.25;;;21.90;99.90;;;;;;5000396;28;20056;-79
2022/09/04 08:08:36;;;;;;;22.80;21.70;;;22.10;99.90;;;;;;4992364;28;20072;-79
2022/09/04 08:11:44;;;;;;;22.88;21.70;;;22.40;99.90;;;;;;4972357;28;20038;-80
2022/09/04 08:14:21;;;;;;;22.75;21.48;;;22.60;99.90;;;;;;4995169;28;20588;-80
2022/09/04 08:17:24;;;;;;;22.98;21.75;;;22.40;99.90;;;;;;4982363;28;20050;-79
2022/09/04 08:19:50;;;;;;;22.58;21.35;;;22.80;99.90;;;;;;4988605;28;20064;-79
2022/09/04 08:22:41;;;;;;;23.08;21.88;;;22.50;99.90;;;;;;4991506;28;20064;-79
2022/09/04 08:25:08;;;;;;;23.17;21.88;;;22.50;99.90;;;;;;4993441;28;20107;-79
2022/09/04 08:27:35;;;;;;;23.20;22.00;;;22.60;99.90;;;;;;4988766;28;20034;-78
2022/09/04 08:30:12;;;;;;;;;;;22.90;99.90;;;;;;4969426;28;20050;-77
2022/09/04 08:33:09;;;;;;;23.58;22.40;;;22.70;99.90;;;;;;5001100;28;19925;-78
2022/09/04 08:36:00;;;;;;;23.20;22.10;;;22.50;99.90;;;;;;4983817;28;20258;-78
2022/09/04 08:38:45;;;;;;;23.08;21.90;;;22.60;99.90;;;;;;4981938;28;20041;-78
2022/09/04 08:41:34;;;;;;;23.60;22.42;;;22.50;99.90;;;;;;4984562;28;20054;-78
2022/09/04 08:44:25;;;;;;;23.40;22.30;;;22.50;99.90;;;;;;5001682;28;20058;-78
2022/09/04 08:46:53;;;;;;;22.35;21.30;;;22.50;99.90;;;;;;5005804;28;20053;-78
2022/09/04 08:49:35;;;;;;;23.52;22.33;;;22.90;99.90;;;;;;4997696;28;20076;-79
2022/09/04 08:52:40;;;;;;;23.70;22.50;;;23.20;99.90;;;;;;5009317;28;20046;-78
2022/09/04 08:55:26;;;;;;;23.13;22.02;;;23.40;99.90;;;;;;4973359;28;20425;-80
2022/09/04 08:58:30;;;;;;;23.20;22.00;;;23.60;99.90;;;;;;4974837;28;20104;-79
2022/09/04 09:01:22;;;;;;;22.20;21.20;;;23.90;99.90;;;;;;4990204;28;20042;-79
2022/09/04 09:04:11;;;;;;;23.13;22.02;;;23.70;99.90;;;;;;5009269;28;20042;-80
2022/09/04 09:07:28;;;;;;;23.58;22.48;;;23.50;99.90;;;;;;5010999;28;20384;-79
2022/09/04 09:10:20;;;;;;;22.30;21.20;;;23.40;99.90;;;;;;4986820;28;20445;-80
2022/09/04 09:13:02;;;;;;;22.17;21.17;;;24.00;99.90;;;;;;4995013;28;20053;-80
2022/09/04 09:15:51;;;;;;;23.88;22.67;;;24.20;99.90;;;;;;4984426;28;20586;-79
2022/09/04 09:18:40;;;;;;;24.08;22.77;;;24.00;99.90;;;;;;5015725;28;20135;-79
2022/09/04 09:21:09;;;;;;;22.73;21.55;;;24.20;99.90;;;;;;4983310;28;20042;-79
2022/09/04 09:23:49;;;;;;;23.80;22.50;;;24.40;99.90;;;;;;4994849;28;20041;-80
2022/09/04 09:26:32;;;;;;;23.38;22.20;;;24.80;99.90;;;;;;4992699;28;20492;-79
2022/09/04 09:29:23;;;;;;;24.08;22.88;;;24.90;99.90;;;;;;4980531;28;20561;-79
2022/09/04 09:32:30;;;;;;;24.13;22.92;;;24.20;99.90;;;;;;4975783;28;20054;-80
2022/09/04 09:35:21;;;;;;;24.77;23.58;;;24.40;99.90;;;;;;4981668;28;20045;-80
2022/09/04 09:38:28;;;;;;;24.27;23.08;;;24.60;99.90;;;;;;4996999;28;20069;-79
2022/09/04 09:41:18;;;;;;;24.50;23.20;;;24.80;99.90;;;;;;5012050;28;20042;-80
2022/09/04 09:44:06;;;;;;;24.02;22.83;;;24.30;99.90;;;;;;4994593;28;20050;-81
2022/09/04 09:46:49;;;;;;;24.40;23.30;;;24.60;99.90;;;;;;5000269;28;20045;-80
2022/09/04 09:49:22;;;;;;;24.25;23.05;;;24.50;99.90;;;;;;4994832;28;20074;-79
2022/09/04 09:52:10;;;;;;;24.20;23.10;;;24.80;99.90;;;;;;4997930;28;20045;-80
2022/09/04 09:55:12;;;;;;;25.08;23.85;;;24.70;99.90;;;;;;4996843;28;20051;-80
2022/09/04 09:58:03;;;;;;;25.70;24.13;;;24.80;99.90;;;;;;5001100;28;20192;-80
2022/09/04 10:01:04;;;;;;;25.58;24.27;;;24.50;99.90;;;;;;4982776;28;20052;-79
2022/09/04 10:03:58;;;;;;;25.55;24.25;;;24.60;99.90;;;;;;4974114;28;20061;-81
2022/09/04 10:06:46;;;;;;;25.35;23.95;;;24.80;99.90;;;;;;4992866;28;20046;-83
2022/09/04 10:09:48;;;;;;;25.05;23.83;;;25.00;99.90;;;;;;4976319;28;20052;-81
2022/09/04 10:12:24;;;;;;;24.60;23.40;;;25.10;99.90;;;;;;4980636;28;20115;-80
2022/09/04 10:15:37;;;;;;;25.73;24.42;;;25.60;99.90;;;;;;4998368;28;20433;-80
2022/09/04 10:18:42;;;;;;;25.75;24.35;;;25.30;99.90;;;;;;4996527;28;20095;-80
2022/09/04 10:21:11;;;;;;;26.27;25.00;;;25.50;99.90;;;;;;5015929;28;20372;-80
2022/09/04 10:24:17;;;;;;;25.80;24.60;;;25.40;99.90;;;;;;4973887;28;20446;-81
2022/09/04 10:27:08;;;;;;;26.47;25.23;;;24.70;99.90;;;;;;5020428;28;20045;-80
2022/09/04 10:30:06;;;;;;;25.52;24.33;;;24.20;99.90;;;;;;4992084;28;20060;-81
2022/09/04 10:32:55;;;;;;;25.27;24.08;;;24.20;99.90;;;;;;4995182;28;20053;-80
2022/09/04 10:35:26;;;;;;;25.00;23.80;;;25.00;99.90;;;;;;5018739;28;20044;-81
2022/09/04 10:38:03;;;;;;;25.23;24.02;;;25.50;99.90;;;;;;5004711;28;20109;-81
2022/09/04 10:41:01;;;;;;;25.00;23.70;;;25.80;99.90;;;;;;5020372;28;20072;-80
2022/09/04 10:43:44;;;;;;;24.85;23.55;;;25.40;99.90;;;;;;5013871;28;21403;-81
2022/09/04 10:46:27;;;;;;;25.92;24.63;;;24.70;99.90;;;;;;5023973;28;20500;-82
2022/09/04 10:49:29;;;;;;;25.42;24.02;;;24.90;99.90;;;;;;4985869;28;20045;-82
2022/09/04 10:52:18;;;;;;;25.02;23.83;;;25.00;99.90;;;;;;4990827;28;20548;-82
2022/09/04 10:54:53;;;;;;;24.98;23.65;;;25.40;99.90;;;;;;5030796;28;20065;-80
2022/09/04 10:57:41;;;;;;;25.60;24.30;;;25.00;99.90;;;;;;4997040;28;20033;-81
2022/09/04 11:00:18;;;;;;;25.23;23.92;;;25.50;99.90;;;;;;5014262;28;20241;-81
2022/09/04 11:03:02;;;;;;;25.83;24.55;;;25.80;99.90;;;;;;4994510;28;20121;-81
2022/09/04 11:05:54;;;;;;;26.63;25.33;;;26.10;99.90;;;;;;5025796;28;20053;-81
2022/09/04 11:08:59;;;;;;;27.17;25.60;;;25.90;99.90;;;;;;5000858;28;20065;-80
2022/09/04 11:12:02;;;;;;;25.60;24.10;;;26.00;99.90;;;;;;5000485;28;20135;-83
2022/09/04 11:14:48;;;;;;;25.23;23.83;;;26.50;99.90;;;;;;4981017;28;20726;-79
2022/09/04 11:17:24;;;;;;;24.83;23.52;;;25.70;99.90;;;;;;4996628;28;20044;-81
2022/09/04 11:20:11;;;;;;;24.58;23.35;;;25.30;99.90;;;;;;4997657;28;20121;-81
2022/09/04 11:23:03;;;;;;;24.95;23.65;;;25.90;99.90;;;;;;5016229;28;20103;-80
2022/09/04 11:26:04;;;;;;;24.05;22.88;;;25.90;99.90;;;;;;5000301;28;20049;-82
2022/09/04 11:28:56;;;;;;;25.83;24.52;;;25.70;99.90;;;;;;4978958;28;20196;-80
2022/09/04 11:31:45;;;;;;;26.90;25.60;;;25.90;99.90;;;;;;4987519;28;20064;-80
2022/09/04 11:34:37;;;;;;;25.38;24.08;;;26.10;99.90;;;;;;5000926;28;20169;-81
2022/09/04 11:37:29;;;;;;;24.92;23.63;;;25.90;99.90;;;;;;5016966;28;20037;-81
2022/09/04 11:40:11;;;;;;;25.88;24.58;;;25.80;99.90;;;;;;4982968;28;20053;-81
2022/09/04 11:42:43;;;;;;;25.55;24.25;;;26.00;99.90;;;;;;4987716;28;20084;-81
2022/09/04 11:45:40;;;;;;;24.80;23.60;;;26.10;99.90;;;;;;4996719;28;20098;-82
2022/09/04 11:48:44;;;;;;;26.75;25.45;;;26.00;99.90;;;;;;4983592;28;20041;-81
2022/09/04 11:51:15;;;;;;;29.00;27.40;;;26.50;99.90;;;;;;4994809;28;20115;-81
2022/09/04 11:54:27;;;;;;;24.55;23.25;;;26.30;99.90;;;;;;4983572;28;20108;-81
2022/09/04 11:57:12;;;;;;;26.25;24.95;;;25.90;99.90;;;;;;4935684;29;20257;-81
2022/09/04 12:00:12;;;;;;;24.13;22.92;;;26.10;99.90;;;;;;5006279;28;20045;-81
2022/09/04 12:03:16;;;;;;;23.65;22.45;;;25.80;99.90;;;;;;4989606;28;20061;-79
2022/09/04 12:06:27;;;;;;;27.70;26.20;;;25.80;99.90;;;;;;4984789;28;20436;-81
2022/09/04 12:09:13;;;;;;;25.80;24.60;;;26.00;99.90;;;;;;4997617;28;20099;-80
2022/09/04 12:11:49;;;;;;;28.52;27.13;;;26.10;99.90;;;;;;4994192;28;20060;-80
2022/09/04 12:14:30;;;;;;;28.58;27.17;;;26.20;99.90;;;;;;4980883;28;20306;-81
2022/09/04 12:17:14;;;;;;;29.60;28.10;;;26.20;99.90;;;;;;4993385;28;20041;-80
2022/09/04 12:20:26;;;;;;;29.27;27.80;;;26.20;99.90;;;;;;4987786;28;20100;-81
2022/09/04 12:23:17;;;;;;;29.33;27.92;;;26.70;99.90;;;;;;4977667;28;20453;-81
2022/09/04 12:26:04;;;;;;;28.35;26.85;;;26.80;99.90;;;;;;4981203;28;20298;-82
2022/09/04 12:28:58;;;;;;;31.67;30.17;;;26.80;99.90;;;;;;4999629;28;20045;-82
2022/09/04 12:31:50;;;;;;;30.45;28.85;;;26.80;99.90;;;;;;4995016;28;20037;-83
2022/09/04 12:34:35;;;;;;;30.77;29.20;;;26.70;99.90;;;;;;4980983;28;20586;-81
2022/09/04 12:37:26;;;;;;;30.90;29.20;;;26.50;99.90;;;;;;5005035;28;20034;-81
2022/09/04 12:40:12;;;;;;;29.63;28.20;;;26.30;99.90;;;;;;4993152;28;20054;-81
2022/09/04 12:43:26;;;;;;;30.42;28.83;;;26.30;99.90;;;;;;5003247;28;20091;-81
2022/09/04 12:46:20;;;;;;;28.05;26.58;;;26.30;99.90;;;;;;4950938;28;20051;-80
2022/09/04 12:49:26;;;;;;;26.88;25.58;;;26.50;99.90;;;;;;4980689;28;20045;-81
2022/09/04 12:52:06;;;;;;;30.00;28.60;;;26.10;99.90;;;;;;4972366;28;20085;-81
2022/09/04 12:55:08;;;;;;;27.88;26.58;;;26.50;99.90;;;;;;4999572;28;20095;-79
2022/09/04 12:58:12;;;;;;;28.73;27.35;;;26.70;99.90;;;;;;5017061;28;20087;-82
2022/09/04 13:00:54;;;;;;;28.02;26.63;;;26.80;99.90;;;;;;4993424;28;20045;-81
2022/09/04 13:03:33;;;;;;;28.10;26.85;;;27.30;99.90;;;;;;4999586;28;20044;-81
2022/09/04 13:06:06;;;;;;;29.60;28.20;;;27.40;99.90;;;;;;4982165;28;20091;-80
2022/09/04 13:09:01;;;;;;;30.92;29.45;;;27.50;99.90;;;;;;4984521;28;20065;-79
2022/09/04 13:11:37;;;;;;;28.42;27.13;;;27.40;99.90;;;;;;4996559;28;20050;-79
2022/09/04 13:14:25;;;;;;;29.05;27.75;;;27.80;99.90;;;;;;4980083;28;20117;-79
2022/09/04 13:17:10;;;;;;;29.02;27.63;;;27.90;99.90;;;;;;4991143;28;20049;-80
2022/09/04 13:19:51;;;;;;;28.95;27.73;;;27.70;99.90;;;;;;4991651;28;20092;-78
2022/09/04 13:22:25;;;;;;;29.60;28.10;;;27.80;99.90;;;;;;4995840;28;20053;-77
2022/09/04 13:25:01;;;;;;;31.35;29.95;;;27.50;99.90;;;;;;4999165;28;20046;-79
2022/09/04 13:27:48;;;;;;;30.17;28.85;;;27.60;99.90;;;;;;4977797;28;20069;-81
2022/09/04 13:30:23;;;;;;;28.38;27.08;;;27.40;99.90;;;;;;5000853;28;20061;-81
2022/09/04 13:33:10;;;;;;;30.08;28.67;;;27.00;99.90;;;;;;5001818;28;20401;-80
2022/09/04 13:36:06;;;;;;;29.50;28.10;;;26.80;99.90;;;;;;4985927;28;20049;-81
2022/09/04 13:38:54;;;;;;;28.75;27.35;;;27.20;99.90;;;;;;4997846;28;20465;-79
2022/09/04 13:41:58;;;;;;;27.77;26.55;;;27.50;99.90;;;;;;4996859;28;20440;-78
2022/09/04 13:44:55;;;;;;;26.25;24.95;;;27.60;99.90;;;;;;4996833;28;20058;-79
2022/09/04 13:47:44;;;;;;;30.83;29.25;;;27.70;99.90;;;;;;4992305;28;20044;-78
2022/09/04 13:50:26;;;;;;;29.55;28.15;;;27.80;99.90;;;;;;4979709;28;20049;-79
2022/09/04 13:53:04;;;;;;;29.38;27.98;;;27.30;99.90;;;;;;4981226;28;20041;-79
2022/09/04 13:55:38;;;;;;;29.95;28.55;;;27.10;99.90;;;;;;4981381;28;20822;-79
2022/09/04 13:58:15;;;;;;;29.40;28.10;;;27.20;99.90;;;;;;4979926;28;20115;-80
2022/09/04 14:00:50;;;;;;;28.05;26.75;;;27.30;99.90;;;;;;4973407;28;20355;-79
2022/09/04 14:03:40;;;;;;;29.48;28.08;;;27.30;99.90;;;;;;4979335;28;20053;-78
2022/09/04 14:06:13;;;;;;;28.30;26.98;;;27.10;99.90;;;;;;4995275;28;20045;-79
2022/09/04 14:08:42;;;;;;;27.83;26.52;;;26.80;99.90;;;;;;4995356;28;20351;-78
2022/09/04 14:11:47;;;;;;;27.67;26.40;;;26.70;99.90;;;;;;5015270;28;20045;-80
2022/09/04 14:14:24;;;;;;;25.87;24.67;;;26.50;99.90;;;;;;4961098;28;20335;-81